Situs API Video Gratis Terbaik

AVDBAPI.COM

Cari katalog, periksa data, dan salin URL API bersih dari satu dasbor cepat.

Telegram Gabung komunitas Telegram untuk update!
Today
0
Pembaruan Hari Ini
Censored
314175
Video Disensor
Total
474406
Total Video

Daftar Video

Data terbaru diurutkan berdasarkan waktu pembaruan.

ID Nama CODE Kategori Diperbarui API
272819 H4610-KI190115 Eri Maeda Gadis 19 Tahun yang Menggoda H4610-KI190115 Tanpa sensor 2025-08-30 01:48:10 API
272818 H0930-ORI1428 Maho Katsuragi, 25 Tahun H0930-ORI1428 Tanpa sensor 2025-08-30 01:48:00 API
272817 081518-729 Si Cantik Lawan Paman-Paman Tukang Creampie Yang Tak Mau Hamil: Sari Nakamura 081518-729 Tanpa sensor 2025-08-30 01:47:50 API
272816 092116-167 Buku Foto Memek Istri Orang 48 092116-167 Tanpa sensor 2025-08-30 01:47:40 API
272815 031717-01 Wawancara AV Amatir 031717-01 Tanpa sensor 2025-08-30 01:47:30 API
272814 K1184 Wanita Mangsa - K1184 Tanpa sensor 2025-08-30 01:47:20 API
272813 FC2-PPV-1608735 Pertama kalinya ngisap dua kontol sekaligus! Wajah terlihat jelas → Bakal gawat kalau ketahuan. Mantan Race Queen JD turun gunung untuk ketiga kalinya ❤ Malu FC2-PPV-1608735 Tanpa sensor 2025-08-30 01:47:10 API
272812 H4610-KI190117 Haruko Sone Wanita Cantik 26 Tahun H4610-KI190117 Tanpa sensor 2025-08-30 01:47:00 API
272811 H0930-ORI1430 Hirono Nakae, Wanita 32 Tahun H0930-ORI1430 Tanpa sensor 2025-08-30 01:46:50 API
272810 HEYZO-1813 Diselingkuhi Karena Pasangannya Adalah Ayah Mertua HEYZO-1813 Tanpa sensor 2025-08-30 01:46:40 API
272809 081618-730 Ecstasy ~ Ciuman adalah pemicu si tupai liar yang nakal ~ Rei Furuse 081618-730 Tanpa sensor 2025-08-30 01:46:30 API
272808 092416-171 Istri-Istri Muda yang Mulai Nakal ~ Sendirian di Tempat Pengantin Wanita ~ 092416-171 Tanpa sensor 2025-08-30 01:46:20 API
272806 031917-01 Bagaimana Gadis Ini Bekerja ~ Tolong Ukur Tubuh Bodohku Ini ~ 031917-01 Tanpa sensor 2025-08-30 01:46:00 API
272805 FC2-PPV-1604931 [Uncensored] Yamamoto Erika - Video asli kualitas ultra HD! Rekaman pertama amatir idol saat kerja part-time! FC2-PPV-1604931 Tanpa sensor 2025-08-30 01:45:50 API
272804 HEYZO-1814 Hentikan terus menerus sambil meremas HEYZO-1814 Tanpa sensor 2025-08-30 01:45:40 API
272803 081718-731 Surga Relaksasi Dewasa: Berendam dengan Payudara Putih Cantik yang Menggoda 081718-731 Tanpa sensor 2025-08-30 01:45:30 API
272802 H4610-ORI1676 Yui Matsudo Cewek 22 Tahun H4610-ORI1676 Tanpa sensor 2025-08-30 01:45:20 API
272801 092916-173 Si Cantik Hannari Kyo Dihajar Terus Menerus Dengan Gila 092916-173 Tanpa sensor 2025-08-30 01:45:10 API
272800 031817-01 Aku memotret adik perempuanku saat sedang bekerja 031817-01 Tanpa sensor 2025-08-30 01:45:00 API
272799 HEYZO-1815 Kenikmatan dengan Massage Erotis! ~ Kasus Miho ~ HEYZO-1815 Tanpa sensor 2025-08-30 01:44:50 API
272798 MUSUME-032317_01 Koleksi Memek Cantik ~Lihatlah Memek yang Terbuka Ini~ MUSUME-032317_01 Tanpa sensor 2025-08-30 01:44:40 API
272797 HEYZO-1816 Z ~ Wanita nakal berwajah cantik nan polos ~ HEYZO-1816 Tanpa sensor 2025-08-30 01:44:30 API
272796 K1186 Wanita Mangsa K1186 Tanpa sensor 2025-08-30 01:44:20 API
272795 H0930-ORI1431 Saori Sonosumi, 27 Tahun H0930-ORI1431 Tanpa sensor 2025-08-30 01:44:10 API
272794 081818-732 Kamu bisa makan cowok ini, kan? Aya Eikura 081818-732 Tanpa sensor 2025-08-30 01:44:00 API
272793 H4610-KI190119 Spesial Kencing Basah H4610-KI190119 Tanpa sensor 2025-08-30 01:43:50 API
272792 032317-01 012317-01 Koleksi Memek Pilihan - silakan lihat memek yang terbuka - 032317-01 Tanpa sensor 2025-08-30 01:43:40 API
272791 HEYZO-1817 Istri Orang yang Tergila HEYZO-1817 Tanpa sensor 2025-08-30 01:43:30 API
272788 FC2-PPV-1603706 FC2-PPV-1606706 Harga Spesial [Bocoran Uncensored Pertama] Hanya Hari Ini: Mukbang Sex Mentah Mizumoto Yuuna Part 1 + 2 | Mizumoto Yuuna PLA-012 Creampie Liar Penuh Insting Mizumoto Yuuna FC2-PPV-1603706 Tanpa sensor 2025-08-30 01:43:00 API
272787 032417-01 Mampir ke rumahmu! Kamu mau ganti pakai baju ini? 032417-01 Tanpa sensor 2025-08-30 01:42:50 API
272786 081918-733 Jika Pacarku Adalah Anri Tachibana ~ Ingin Tenggelam Dalam Nafsunya Di Malam Tengah Musim Panas ~ Anri Tachibana 081918-733 Tanpa sensor 2025-08-30 01:42:40 API
272784 H4610-KI190120 Ayumi Nakamura Gadis Seksi 24 Tahun H4610-KI190120 Tanpa sensor 2025-08-30 01:42:20 API
272783 H0930-ORI1432 Wanita Seksi 33 Tahun Yoko Higashio H0930-ORI1432 Tanpa sensor 2025-08-30 01:42:10 API
272782 HEYZO-107 Layanan Spesial Nona Onakura: Makoto Yuki HEYZO-107 Tanpa sensor 2025-08-30 01:42:00 API
272781 100716-178 Wanita matang yang disalahpahami, mabuk lalu menyambar seorang pria 100716-178 Tanpa sensor 2025-08-30 01:41:50 API
272780 K1188 Wanita Mangsa K1188 Tanpa sensor 2025-08-30 01:41:40 API
272779 FC2-PPV-1602672 [Rekaman Pribadi] Istri montok usia 37 tahun dipaksa menerima kontol yang tidak diinginkannya. Kontol menghunjam masuk ke sela kakinya yang terbuka lebar di tengah teriakan sia-sia FC2-PPV-1602672 Tanpa sensor 2025-08-30 01:41:30 API
272778 PRED-476 Pendatang Baru Mantan Penyiar Lokal Yuri Hirose Debut AV PRED-476 Disensor (Mosaik) 2025-08-30 01:41:20 API
272777 082018-734 Miyuki Sakura 082018-734 Tanpa sensor 2025-08-30 01:41:10 API
272776 H4610-KI190124 Fuyumi Noguchi, Gadis 18 Tahun H4610-KI190124 Tanpa sensor 2025-08-30 01:41:00 API
272775 101316-182 Si Cantik dari Kansai yang Sangat Elegan 101316-182 Tanpa sensor 2025-08-30 01:40:50 API
272774 H0930-ORI1433 Yoko Higashio Wanita Cantik Usia 33 Tahun H0930-ORI1433 Tanpa sensor 2025-08-30 01:40:40 API
272773 032817-01 Gimana kabar suamimu, kontolmu? 032817-01 Tanpa sensor 2025-08-30 01:40:30 API
272772 FC2-PPV-1599786 Kasir Supermarket Ingin Jadi Pramugari! Mabuk Terus Rekam Diri Sendiri! Saking Seksnya Sampai Minta Dicrot di Dalam! FC2-PPV-1599786 Tanpa sensor 2025-08-30 01:40:20 API
272771 K1187 Wanita Mangsa K1187 Tanpa sensor 2025-08-30 01:40:10 API
272770 HEYZO-108 Mai Odaka Ditid Karena Kontrak Langganan Koran HEYZO-108 Tanpa sensor 2025-08-30 01:40:00 API
272769 082118-735 File Wanita Sedang Masa Subur/Gairah 064 Manaka 082118-735 Tanpa sensor 2025-08-30 01:39:50 API
272768 FC2-PPV-1586934 [Uncensored Leaked] Promo Heboh Yuma Asami FHD Kualitas Tinggi [Set 3 Video] Bonus Mewah: Yuma Asami SOE-166 Seks Intens dengan Cairan Tubuh yang Bercampur Aduk FC2-PPV-1586934 Tanpa sensor 2025-08-30 01:39:40 API
272766 H0930-ORI1434 Akemi Suzuda Wanita 28 Tahun H0930-ORI1434 Tanpa sensor 2025-08-30 01:39:20 API
272765 H4610-KI190127 Juri Kitami, 26 Tahun H4610-KI190127 Tanpa sensor 2025-08-30 01:39:10 API